createdAt,value
2022-08-07T00:02:41.467Z,20.70
2022-08-07T00:05:26.193Z,20.60
2022-08-07T00:08:02.177Z,20.60
2022-08-07T00:10:48.065Z,20.50
2022-08-07T00:13:37.697Z,20.50
2022-08-07T00:16:28.074Z,20.40
2022-08-07T00:19:05.670Z,20.40
2022-08-07T00:21:56.106Z,20.30
2022-08-07T00:24:39.488Z,20.20
2022-08-07T00:27:14.050Z,20.20
2022-08-07T00:29:54.489Z,20.10
2022-08-07T00:32:35.107Z,20.10
2022-08-07T00:35:15.053Z,20.00
2022-08-07T00:37:52.387Z,19.90
2022-08-07T00:40:40.854Z,19.90
2022-08-07T00:43:59.717Z,19.90
2022-08-07T00:46:19.070Z,19.80
2022-08-07T00:48:53.526Z,19.80
2022-08-07T00:51:57.580Z,19.80
2022-08-07T00:54:42.147Z,19.70
2022-08-07T00:57:20.268Z,19.70
2022-08-07T01:00:08.133Z,19.70
2022-08-07T01:02:46.145Z,19.60
2022-08-07T01:05:24.589Z,19.60
2022-08-07T01:07:58.599Z,19.60
2022-08-07T01:10:41.124Z,19.50
2022-08-07T01:13:26.600Z,19.40
2022-08-07T01:16:30.507Z,19.40
2022-08-07T01:19:18.142Z,19.30
2022-08-07T01:22:03.111Z,19.20
2022-08-07T01:24:53.200Z,19.20
2022-08-07T01:27:32.319Z,19.10
2022-08-07T01:30:10.881Z,19.20
2022-08-07T01:32:51.527Z,19.10
2022-08-07T01:35:53.647Z,19.10
2022-08-07T01:38:31.148Z,19.10
2022-08-07T01:41:26.271Z,19.00
2022-08-07T01:44:10.108Z,19.00
2022-08-07T01:46:54.797Z,18.90
2022-08-07T01:49:35.158Z,18.90
2022-08-07T01:52:19.167Z,18.90
2022-08-07T01:55:00.169Z,18.90
2022-08-07T01:58:05.449Z,18.80
2022-08-07T02:00:57.898Z,18.80
2022-08-07T02:03:48.984Z,18.80
2022-08-07T02:06:32.545Z,18.70
2022-08-07T02:09:51.835Z,18.70
2022-08-07T02:12:29.322Z,18.70
2022-08-07T02:15:09.184Z,18.60
2022-08-07T02:17:51.667Z,18.60
2022-08-07T02:20:26.552Z,18.60
2022-08-07T02:23:11.658Z,18.50
2022-08-07T02:26:26.653Z,18.50
2022-08-07T02:28:54.184Z,18.50
2022-08-07T02:31:32.564Z,18.50
2022-08-07T02:34:11.207Z,18.50
2022-08-07T02:36:53.810Z,18.50
2022-08-07T02:39:43.418Z,18.50
2022-08-07T02:42:38.664Z,18.50
2022-08-07T02:46:00.320Z,18.50
2022-08-07T02:48:35.269Z,18.60
2022-08-07T02:51:41.948Z,18.60
2022-08-07T02:54:15.194Z,18.60
2022-08-07T02:56:50.199Z,18.60
2022-08-07T02:59:34.023Z,18.60
2022-08-07T03:02:15.276Z,18.60
2022-08-07T03:04:56.872Z,18.50
2022-08-07T03:08:05.001Z,18.50
2022-08-07T03:10:41.032Z,18.50
2022-08-07T03:13:25.563Z,18.40
2022-08-07T03:16:05.697Z,18.40
2022-08-07T03:18:46.195Z,18.30
2022-08-07T03:21:23.236Z,18.30
2022-08-07T03:24:20.932Z,18.30
2022-08-07T03:27:11.255Z,18.20
2022-08-07T03:29:56.614Z,18.20
2022-08-07T03:32:34.305Z,18.20
2022-08-07T03:35:27.916Z,18.20
2022-08-07T03:38:33.334Z,18.20
2022-08-07T03:41:14.990Z,18.20
2022-08-07T03:43:57.307Z,18.20
2022-08-07T03:46:36.244Z,18.20
2022-08-07T03:49:38.653Z,18.20
2022-08-07T03:52:22.741Z,18.20
2022-08-07T03:55:08.292Z,18.30
2022-08-07T03:59:07.359Z,18.40
2022-08-07T04:00:59.426Z,18.40
2022-08-07T04:03:53.431Z,18.50
2022-08-07T04:06:41.264Z,18.70
2022-08-07T04:09:23.405Z,18.70
2022-08-07T04:12:25.143Z,18.80
2022-08-07T04:15:13.353Z,18.90
2022-08-07T04:18:30.815Z,18.90
2022-08-07T04:20:55.045Z,18.90
2022-08-07T04:23:43.694Z,19.00
2022-08-07T04:26:39.644Z,19.00
2022-08-07T04:29:20.312Z,19.20
2022-08-07T04:32:10.767Z,19.30
2022-08-07T04:34:51.265Z,19.40
2022-08-07T04:38:01.025Z,19.50
2022-08-07T04:40:34.354Z,19.60
2022-08-07T04:43:09.152Z,19.70
2022-08-07T04:46:00.864Z,19.90
2022-08-07T04:48:50.876Z,20.00
2022-08-07T04:51:42.303Z,20.00
2022-08-07T04:54:34.344Z,20.20
2022-08-07T04:58:24.120Z,20.30
2022-08-07T05:00:30.614Z,20.40
2022-08-07T05:04:06.604Z,20.50
2022-08-07T05:06:51.783Z,20.70
2022-08-07T05:09:46.491Z,21.00
2022-08-07T05:12:26.892Z,21.20
2022-08-07T05:15:23.485Z,21.30
2022-08-07T05:18:15.376Z,21.50
2022-08-07T05:21:00.576Z,21.70
2022-08-07T05:23:50.194Z,21.90
2022-08-07T05:26:24.807Z,22.10
2022-08-07T05:29:08.932Z,22.20
2022-08-07T05:31:52.655Z,22.30
2022-08-07T05:34:39.498Z,22.30
2022-08-07T05:37:25.348Z,22.30
2022-08-07T05:40:17.757Z,22.30
2022-08-07T05:43:02.402Z,22.30
2022-08-07T05:45:47.087Z,22.50
2022-08-07T05:48:26.335Z,22.60
2022-08-07T05:51:11.539Z,22.80
2022-08-07T05:54:13.345Z,23.00
2022-08-07T05:56:51.296Z,23.10
2022-08-07T05:59:39.062Z,23.50
2022-08-07T06:02:36.941Z,23.70
2022-08-07T06:05:25.837Z,24.10
2022-08-07T06:08:30.316Z,24.20
2022-08-07T06:11:10.799Z,24.20
2022-08-07T06:14:13.138Z,24.30
2022-08-07T06:16:57.135Z,24.50
2022-08-07T06:20:03.744Z,24.90
2022-08-07T06:23:01.795Z,25.10
2022-08-07T06:25:54.249Z,25.10
2022-08-07T06:28:33.450Z,25.10
2022-08-07T06:31:10.802Z,25.30
2022-08-07T06:33:55.465Z,25.60
2022-08-07T06:36:35.419Z,25.90
2022-08-07T06:40:16.777Z,26.10
2022-08-07T06:42:33.003Z,26.20
2022-08-07T06:45:29.555Z,26.20
2022-08-07T06:48:13.420Z,26.30
2022-08-07T06:50:55.917Z,26.70
2022-08-07T06:54:11.758Z,26.70
2022-08-07T06:56:49.527Z,26.80
2022-08-07T07:00:12.089Z,27.10
2022-08-07T07:02:48.598Z,27.20
2022-08-07T07:06:03.845Z,27.40
2022-08-07T07:08:46.641Z,27.50
2022-08-07T07:12:08.749Z,27.50
2022-08-07T07:14:34.221Z,27.50
2022-08-07T07:17:13.611Z,27.90
2022-08-07T07:19:56.959Z,28.00
2022-08-07T07:24:05.612Z,27.70
2022-08-07T07:26:35.418Z,27.80
2022-08-07T07:29:28.571Z,28.70
2022-08-07T07:31:56.499Z,28.60
2022-08-07T07:34:34.753Z,28.50
2022-08-07T07:37:45.497Z,28.20
2022-08-07T07:40:26.399Z,28.70
2022-08-07T07:43:15.015Z,30.30
2022-08-07T07:46:37.921Z,31.70
2022-08-07T07:50:15.902Z,32.70
2022-08-07T07:52:03.579Z,33.70
2022-08-07T07:54:50.534Z,34.20
2022-08-07T07:57:43.948Z,32.90
2022-08-07T08:00:34.173Z,31.90
2022-08-07T08:04:06.080Z,30.80
2022-08-07T08:06:31.911Z,30.20
2022-08-07T08:09:06.593Z,29.50
2022-08-07T08:12:00.060Z,29.10
2022-08-07T08:14:26.517Z,29.20
2022-08-07T08:16:56.592Z,29.10
2022-08-07T08:20:19.021Z,29.00
2022-08-07T08:22:55.975Z,28.90
2022-08-07T08:25:49.033Z,28.80
2022-08-07T08:28:24.115Z,28.60
2022-08-07T08:31:06.855Z,28.40
2022-08-07T08:33:37.605Z,28.20
2022-08-07T08:36:08.008Z,28.20
2022-08-07T08:38:41.101Z,28.20
2022-08-07T08:41:23.187Z,28.30
2022-08-07T08:44:15.707Z,28.20
2022-08-07T08:46:49.476Z,27.90
2022-08-07T08:49:33.950Z,27.70
2022-08-07T08:52:24.190Z,27.40
2022-08-07T08:55:08.077Z,27.30
2022-08-07T08:57:42.761Z,27.20
2022-08-07T09:00:14.091Z,27.20
2022-08-07T09:02:49.512Z,27.20
2022-08-07T09:05:37.017Z,27.10
2022-08-07T09:08:07.410Z,27.10
2022-08-07T09:10:45.302Z,27.00
2022-08-07T09:13:36.826Z,26.90
2022-08-07T09:16:40.343Z,26.90
2022-08-07T09:19:52.338Z,26.90
2022-08-07T09:24:28.353Z,26.90
2022-08-07T09:25:24.260Z,27.20
2022-08-07T09:28:00.971Z,27.40
2022-08-07T09:31:03.039Z,27.60
2022-08-07T09:33:57.638Z,27.80
2022-08-07T09:36:37.338Z,28.30
2022-08-07T09:39:52.651Z,30.20
2022-08-07T09:42:07.814Z,32.30
2022-08-07T09:45:03.421Z,34.70
2022-08-07T09:48:00.887Z,36.00
2022-08-07T09:50:54.491Z,35.90
2022-08-07T09:53:25.777Z,35.00
2022-08-07T09:56:05.467Z,34.30
2022-08-07T09:58:55.738Z,33.60
2022-08-07T10:01:53.044Z,32.60
2022-08-07T10:04:28.285Z,31.80
2022-08-07T10:07:04.130Z,31.00
2022-08-07T10:09:58.962Z,30.70
2022-08-07T10:12:31.367Z,31.40
2022-08-07T10:15:20.642Z,32.70
2022-08-07T10:18:02.873Z,33.40
2022-08-07T10:20:44.497Z,33.80
2022-08-07T10:24:05.410Z,36.10
2022-08-07T10:26:40.561Z,36.00
2022-08-07T10:29:23.931Z,34.80
2022-08-07T10:32:00.896Z,33.70
2022-08-07T10:34:32.729Z,32.90
2022-08-07T10:37:04.796Z,32.20
2022-08-07T10:39:42.255Z,31.60
2022-08-07T10:42:37.305Z,31.20
2022-08-07T10:45:44.766Z,30.80
2022-08-07T10:48:15.131Z,30.60
2022-08-07T10:50:51.660Z,30.70
2022-08-07T10:53:21.624Z,30.90
2022-08-07T10:55:54.239Z,30.90
2022-08-07T10:58:40.787Z,31.10
2022-08-07T11:01:18.012Z,31.50
2022-08-07T11:04:16.495Z,33.00
2022-08-07T11:06:44.461Z,32.70
2022-08-07T11:09:12.887Z,32.20
2022-08-07T11:12:12.263Z,32.00
2022-08-07T11:15:00.742Z,31.60
2022-08-07T11:17:43.290Z,31.40
2022-08-07T11:20:14.023Z,31.30
2022-08-07T11:22:54.672Z,31.30
2022-08-07T11:25:25.376Z,31.30
2022-08-07T11:28:12.641Z,31.20
2022-08-07T11:31:00.024Z,31.40
2022-08-07T11:33:58.698Z,31.70
2022-08-07T11:36:46.329Z,32.40
2022-08-07T11:39:28.343Z,32.70
2022-08-07T11:42:29.509Z,32.70
2022-08-07T11:44:58.211Z,32.70
2022-08-07T11:47:56.624Z,32.50
2022-08-07T11:50:57.710Z,32.50
2022-08-07T11:54:00.706Z,33.30
2022-08-07T11:56:33.106Z,34.70
2022-08-07T12:00:08.157Z,36.40
2022-08-07T12:02:20.788Z,37.10
2022-08-07T12:05:01.320Z,35.80
2022-08-07T12:07:53.618Z,34.90
2022-08-07T12:10:37.907Z,34.30
2022-08-07T12:13:35.774Z,33.70
2022-08-07T12:16:12.283Z,33.20
2022-08-07T12:19:06.042Z,32.50
2022-08-07T12:22:35.917Z,31.80
2022-08-07T12:24:40.220Z,31.00
2022-08-07T12:27:16.932Z,29.90
2022-08-07T12:30:03.570Z,29.50
2022-08-07T12:32:44.503Z,29.20
2022-08-07T12:35:20.971Z,29.20
2022-08-07T12:38:09.435Z,29.10
2022-08-07T12:40:47.794Z,29.10
2022-08-07T12:44:01.995Z,28.90
2022-08-07T12:46:32.482Z,28.90
2022-08-07T12:49:39.823Z,28.90
2022-08-07T12:52:14.429Z,29.00
2022-08-07T12:54:55.009Z,29.20
2022-08-07T12:57:38.758Z,29.10
2022-08-07T13:00:21.001Z,29.20
2022-08-07T13:03:27.019Z,29.30
2022-08-07T13:06:36.652Z,29.30
2022-08-07T13:10:19.599Z,29.40
2022-08-07T13:12:30.157Z,29.30
2022-08-07T13:15:14.315Z,29.50
2022-08-07T13:18:09.860Z,29.90
2022-08-07T13:21:02.729Z,30.40
2022-08-07T13:24:01.898Z,30.30
2022-08-07T13:26:41.815Z,30.00
2022-08-07T13:29:17.484Z,29.60
2022-08-07T13:31:57.371Z,29.20
2022-08-07T13:34:50.813Z,29.00
2022-08-07T13:37:25.888Z,28.80
2022-08-07T13:40:34.975Z,28.80
2022-08-07T13:43:06.450Z,29.20
2022-08-07T13:46:10.906Z,30.50
2022-08-07T13:48:34.466Z,30.50
2022-08-07T13:51:28.040Z,30.20
2022-08-07T13:54:00.743Z,30.00
2022-08-07T13:56:41.221Z,30.70
2022-08-07T13:59:27.259Z,31.70
2022-08-07T14:02:08.766Z,32.40
2022-08-07T14:04:48.912Z,31.80
2022-08-07T14:07:23.030Z,31.00
2022-08-07T14:10:17.589Z,30.30
2022-08-07T14:13:02.185Z,29.70
2022-08-07T14:15:44.853Z,29.20
2022-08-07T14:18:30.499Z,28.70
2022-08-07T14:21:08.518Z,28.40
2022-08-07T14:24:01.218Z,28.10
2022-08-07T14:26:34.112Z,27.90
2022-08-07T14:30:03.046Z,27.90
2022-08-07T14:34:46.370Z,27.90
2022-08-07T14:40:26.367Z,29.20
2022-08-07T14:43:59.470Z,30.10
2022-08-07T14:45:54.664Z,30.40
2022-08-07T14:48:33.447Z,30.30
2022-08-07T14:51:04.588Z,30.10
2022-08-07T14:54:05.906Z,30.50
2022-08-07T14:56:30.099Z,31.00
2022-08-07T15:02:08.698Z,31.70
2022-08-07T15:05:01.791Z,31.80
2022-08-07T15:07:47.374Z,31.00
2022-08-07T15:10:32.109Z,30.30
2022-08-07T15:13:11.801Z,29.70
2022-08-07T15:15:52.643Z,29.30
2022-08-07T15:18:45.391Z,28.90
2022-08-07T15:21:43.769Z,28.60
2022-08-07T15:28:53.574Z,27.90
2022-08-07T15:31:58.063Z,27.80
2022-08-07T15:38:04.341Z,27.40
2022-08-07T15:40:38.050Z,27.20
2022-08-07T15:46:52.666Z,27.00
2022-08-07T15:50:04.422Z,26.80
2022-08-07T15:52:31.385Z,26.80
2022-08-07T15:55:11.614Z,26.70
2022-08-07T15:57:50.551Z,26.60
2022-08-07T16:00:35.734Z,26.50
2022-08-07T16:03:46.785Z,26.40
2022-08-07T16:06:22.147Z,26.30
2022-08-07T16:09:07.698Z,26.30
2022-08-07T16:11:58.979Z,26.20
2022-08-07T16:14:44.346Z,26.30
2022-08-07T16:18:02.526Z,26.50
2022-08-07T16:20:34.022Z,26.20
2022-08-07T16:23:13.397Z,26.00
2022-08-07T16:25:55.722Z,25.90
2022-08-07T16:30:07.091Z,25.90
2022-08-07T16:31:52.039Z,25.70
2022-08-07T16:34:30.543Z,25.60
2022-08-07T16:37:02.852Z,25.40
2022-08-07T16:40:28.608Z,25.20
2022-08-07T16:44:06.372Z,24.90
2022-08-07T16:47:51.511Z,24.80
2022-08-07T16:50:37.176Z,24.60
2022-08-07T16:53:55.382Z,24.60
2022-08-07T16:56:08.970Z,24.50
2022-08-07T16:59:14.312Z,24.40
2022-08-07T17:02:51.599Z,24.40
2022-08-07T17:06:02.366Z,24.30
2022-08-07T17:08:08.986Z,24.20
2022-08-07T17:10:54.241Z,24.20
2022-08-07T17:20:01.937Z,23.90
2022-08-07T17:22:36.394Z,23.80
2022-08-07T17:25:47.811Z,23.60
2022-08-07T17:28:19.752Z,23.60
2022-08-07T17:31:01.252Z,23.50
2022-08-07T17:42:14.970Z,23.00
2022-08-07T17:44:54.949Z,23.00
2022-08-07T17:47:43.864Z,22.90
2022-08-07T17:50:16.736Z,22.80
2022-08-07T17:53:08.712Z,22.70
2022-08-07T17:56:07.034Z,22.50
2022-08-07T17:58:46.449Z,22.50
2022-08-07T18:01:21.262Z,22.50
2022-08-07T18:04:16.170Z,22.50
